Terminal Aerodrome Forecast
Issued by NWS

Home | Current Version | Previous Version | Text Only | Print | Product List | Glossary On
Versions: 1 2 3 4 5 6 7 8 9 10 11 12 13 14 15 16 17 18 19 20 21 22
000
FTUS41 KOKX 011700
TAFHPN
TAF
KHPN 011736Z 0118/0218 26006KT P6SM BKN040
     FM020100 VRB04KT 2SM -SN SCT008 SCT020 OVC040
     FM020400 VRB04KT 1SM -SN OVC008
     FM020700 10009KT 1SM -SN OVC005
      TEMPO 0208/0212 1/4SM +SN FZFG
     FM021200 09010KT 1SM FZRASN BR OVC004
     FM021500 36011KT 2SM FZRASN BR OVC005
      AMD NOT SKED=

USA.gov is the U.S. government's official web portal to all federal, state and local government web resources and services.